This is the latest recevied weather packets stored in our database for station/object OK0BPL-5. If no packets are shown the sender has not sent any weather packets the latest 10 day(s).
| Time | Temp. | Humidity | Pressure | Rain* | Wind** | Luminosity | Snow |
|---|---|---|---|---|---|---|---|
| 1787408057 | 21.11° C | 54% | 1041.3 hPa | 0 mm | - | 54 W/m² | - |
| 1787407157 | 20.56° C | 55% | 1041.4 hPa | 0 mm | - | 51 W/m² | - |
| 1787407157 | 20.56° C | 55% | 1041.4 hPa | 0 mm | - | 51 W/m² | - |
| 1787406257 | 19.44° C | 58% | 1042.1 hPa | 0 mm | - | 89 W/m² | - |
| 1787406257 | 19.44° C | 58% | 1042.1 hPa | 0 mm | - | 89 W/m² | - |
| 1787405357 | 18.89° C | 62% | 1042 hPa | 0 mm | - | 61 W/m² | - |
| 1787405357 | 18.89° C | 62% | 1042 hPa | 0 mm | - | 61 W/m² | - |
| 1787404457 | 20.56° C | 56% | 1041.1 hPa | 0 mm | - | 57 W/m² | - |
| 1787404457 | 20.56° C | 56% | 1041.1 hPa | 0 mm | - | 57 W/m² | - |
| 1787403557 | 20° C | 55% | 1041.5 hPa | 0 mm | - | 50 W/m² | - |
| 1787403557 | 20° C | 55% | 1041.5 hPa | 0 mm | - | 50 W/m² | - |
| 1787402657 | 19.44° C | 63% | 1041.5 hPa | 0 mm | - | 115 W/m² | - |
| 1787402657 | 19.44° C | 63% | 1041.5 hPa | 0 mm | - | 115 W/m² | - |
| 1787401757 | 19.44° C | 63% | 1041.2 hPa | 0 mm | - | 84 W/m² | - |
| 1787401757 | 19.44° C | 63% | 1041.2 hPa | 0 mm | - | 84 W/m² | - |
| 1787400857 | 20° C | 63% | 1040.8 hPa | 0 mm | - | 139 W/m² | - |
| 1787400857 | 20° C | 63% | 1040.8 hPa | 0 mm | - | 139 W/m² | - |
| 1787399957 | 20° C | 60% | 1040.9 hPa | 0 mm | - | 161 W/m² | - |
| 1787399957 | 20° C | 60% | 1040.9 hPa | 0 mm | - | 161 W/m² | - |
| 1787399057 | 19.44° C | 58% | 1040.9 hPa | 0 mm | - | 158 W/m² | - |
| 1787399057 | 19.44° C | 58% | 1040.9 hPa | 0 mm | - | 158 W/m² | - |
| 1787398157 | 21.11° C | 53% | 1040 hPa | 0 mm | - | 56 W/m² | - |
| 1787398157 | 21.11° C | 53% | 1040 hPa | 0 mm | - | 56 W/m² | - |
| 1787397257 | 21.11° C | 51% | 1039.7 hPa | 0 mm | - | 136 W/m² | - |
| 1787397257 | 21.11° C | 51% | 1039.7 hPa | 0 mm | - | 136 W/m² | - |
* Rain latest hour (hover to see other rain measurements)
** Current wind speed in m/s (hover to see current wind gust speed)